Nikol'Sk, Russia
Current Conditions -  °F | °C
As of 6:30 AM on Tuesday 21 Oct 2014 (Local Time) from UWGG Reporting Station
Light Snow Light Snow  
Wind Chill: 21°   Ceiling: 1000
Heat Index: 30°   Visibility: 2.3mi
Dew Point: 28°   Wind: 11mph
Humidity: 93%   Direction: 110°ESE
Pressure: 29.44"   Gusts: NA
Location:  59.53°N, 45.47°E
Report Text: UWGG 210330Z 11005MPS 3800 -SN OVC010 M01/M02 Q0997 TEMPO 1500SN FZRA OVC005 36450145 RMK QFE741
Loading
Personal Weather Stations






























Interactive Weather Map
Tropical Storm Tracking
New forecast layout! Learn more

10-Day Weather Forecast

Advertisements
Track Severe Weather on mobile